createdAt,value
2022-09-24T00:01:00.209Z,81.10
2022-09-24T00:03:28.397Z,81.00
2022-09-24T00:05:56.263Z,81.10
2022-09-24T00:08:24.136Z,81.00
2022-09-24T00:10:53.344Z,81.00
2022-09-24T00:13:21.178Z,81.00
2022-09-24T00:15:50.122Z,80.90
2022-09-24T00:18:18.812Z,80.90
2022-09-24T00:20:46.666Z,81.00
2022-09-24T00:23:14.717Z,81.00
2022-09-24T00:26:00.321Z,81.00
2022-09-24T00:28:29.902Z,81.10
2022-09-24T00:30:59.130Z,81.30
2022-09-24T00:33:28.270Z,81.20
2022-09-24T00:35:59.476Z,81.30
2022-09-24T00:38:27.325Z,81.60
2022-09-24T00:40:55.132Z,81.60
2022-09-24T00:43:24.146Z,81.50
2022-09-24T00:45:54.086Z,81.40
2022-09-24T00:48:21.986Z,81.40
2022-09-24T00:50:49.821Z,81.70
2022-09-24T00:53:19.304Z,81.70
2022-09-24T00:55:48.652Z,81.90
2022-09-24T00:58:16.510Z,82.00
2022-09-24T01:00:44.706Z,82.00
2022-09-24T01:03:15.268Z,82.00
2022-09-24T01:05:43.359Z,82.10
2022-09-24T01:08:13.246Z,82.10
2022-09-24T01:10:50.960Z,82.00
2022-09-24T01:13:29.220Z,81.90
2022-09-24T01:16:00.981Z,82.00
2022-09-24T01:18:33.707Z,82.00
2022-09-24T01:21:10.558Z,81.90
2022-09-24T01:24:02.428Z,82.10
2022-09-24T01:26:37.152Z,82.20
2022-09-24T01:29:06.251Z,82.20
2022-09-24T01:31:41.011Z,82.00
2022-09-24T01:34:10.946Z,82.10
2022-09-24T01:36:39.925Z,82.30
2022-09-24T01:39:08.483Z,82.60
2022-09-24T01:41:37.246Z,82.60
2022-09-24T01:44:07.790Z,82.70
2022-09-24T01:46:38.514Z,82.90
2022-09-24T01:49:07.193Z,82.90
2022-09-24T01:51:37.173Z,82.90
2022-09-24T01:54:06.505Z,83.10
2022-09-24T01:56:35.643Z,83.20
2022-09-24T01:59:05.156Z,83.10
2022-09-24T02:01:35.696Z,82.90
2022-09-24T02:04:08.138Z,82.90
2022-09-24T02:06:39.348Z,82.60
2022-09-24T02:09:07.207Z,82.70
2022-09-24T02:11:36.903Z,82.80
2022-09-24T02:14:07.841Z,82.80
2022-09-24T02:16:37.241Z,82.80
2022-09-24T02:19:07.626Z,82.80
2022-09-24T02:21:35.785Z,82.90
2022-09-24T02:24:06.441Z,82.90
2022-09-24T02:26:34.701Z,82.80
2022-09-24T02:29:02.635Z,82.70
2022-09-24T02:31:32.125Z,82.80
2022-09-24T02:34:20.072Z,82.80
2022-09-24T02:36:49.700Z,83.20
2022-09-24T02:39:18.421Z,83.30
2022-09-24T02:41:48.133Z,83.20
2022-09-24T02:44:16.487Z,83.10
2022-09-24T02:46:44.476Z,83.30
2022-09-24T02:49:12.802Z,83.30
2022-09-24T02:51:40.833Z,83.30
2022-09-24T02:54:10.171Z,83.20
2022-09-24T02:56:38.159Z,83.30
2022-09-24T02:59:06.345Z,83.40
2022-09-24T03:01:34.822Z,83.60
2022-09-24T03:04:03.113Z,83.60
2022-09-24T03:06:33.598Z,83.50
2022-09-24T03:09:03.476Z,83.40
2022-09-24T03:11:33.174Z,83.50
2022-09-24T03:14:01.336Z,83.40
2022-09-24T03:16:29.641Z,83.50
2022-09-24T03:18:57.564Z,83.60
2022-09-24T03:21:25.432Z,83.50
2022-09-24T03:23:53.350Z,83.50
2022-09-24T03:26:21.189Z,83.50
2022-09-24T03:28:50.408Z,83.60
2022-09-24T03:31:17.406Z,83.60
2022-09-24T03:33:46.675Z,83.60
2022-09-24T03:36:15.498Z,83.50
2022-09-24T03:38:44.173Z,83.70
2022-09-24T03:41:12.340Z,83.60
2022-09-24T03:43:40.446Z,83.60
2022-09-24T03:46:10.146Z,83.70
2022-09-24T03:48:39.549Z,83.90
2022-09-24T03:51:07.760Z,84.20
2022-09-24T03:53:35.601Z,84.30
2022-09-24T03:56:04.197Z,84.20
2022-09-24T03:58:32.204Z,84.20
2022-09-24T04:01:00.170Z,84.10
2022-09-24T04:03:29.341Z,84.10
2022-09-24T04:05:57.156Z,83.90
2022-09-24T04:08:26.023Z,83.90
2022-09-24T04:10:55.308Z,83.70
2022-09-24T04:13:23.570Z,83.70
2022-09-24T04:15:52.448Z,83.60
2022-09-24T04:18:20.587Z,83.60
2022-09-24T04:20:49.771Z,83.60
2022-09-24T04:23:17.577Z,83.50
2022-09-24T04:25:45.374Z,83.60
2022-09-24T04:28:13.187Z,83.50
2022-09-24T04:30:41.059Z,83.60
2022-09-24T04:33:09.099Z,83.50
2022-09-24T04:35:37.336Z,83.50
2022-09-24T04:38:06.581Z,83.70
2022-09-24T04:40:34.475Z,83.90
2022-09-24T04:43:03.178Z,83.90
2022-09-24T04:45:31.231Z,83.80
2022-09-24T04:47:59.356Z,83.70
2022-09-24T04:50:28.723Z,83.60
2022-09-24T04:52:57.195Z,83.60
2022-09-24T04:55:27.711Z,83.30
2022-09-24T04:57:56.768Z,83.40
2022-09-24T05:00:25.010Z,83.40
2022-09-24T05:02:57.111Z,83.20
2022-09-24T05:05:25.125Z,83.20
2022-09-24T05:07:53.163Z,83.30
2022-09-24T05:10:21.360Z,83.60
2022-09-24T05:12:52.416Z,83.80
2022-09-24T05:15:20.580Z,83.90
2022-09-24T05:17:48.735Z,83.90
2022-09-24T05:20:16.836Z,83.90
2022-09-24T05:22:45.099Z,83.80
2022-09-24T05:25:14.124Z,83.80
2022-09-24T05:27:44.145Z,83.90
2022-09-24T05:30:13.800Z,83.90
2022-09-24T05:32:41.670Z,83.90
2022-09-24T05:35:09.683Z,84.30
2022-09-24T05:37:38.219Z,84.40
2022-09-24T05:40:21.121Z,84.50
2022-09-24T05:42:48.997Z,84.10
2022-09-24T05:45:18.604Z,84.20
2022-09-24T05:47:46.896Z,84.20
2022-09-24T05:50:15.098Z,84.30
2022-09-24T05:52:43.000Z,84.90
2022-09-24T05:55:11.242Z,85.20
2022-09-24T05:57:39.232Z,84.40
2022-09-24T06:00:07.934Z,83.70
2022-09-24T06:02:43.467Z,83.60
2022-09-24T06:05:11.951Z,83.60
2022-09-24T06:07:40.172Z,82.50
2022-09-24T06:10:08.483Z,82.30
2022-09-24T06:12:36.752Z,82.30
2022-09-24T06:15:04.933Z,82.50
2022-09-24T06:17:32.856Z,82.50
2022-09-24T06:20:02.216Z,82.70
2022-09-24T06:22:30.098Z,82.50
2022-09-24T06:24:57.987Z,82.10
2022-09-24T06:27:25.869Z,81.30
2022-09-24T06:29:53.743Z,80.90
2022-09-24T06:32:21.897Z,80.40
2022-09-24T06:34:49.757Z,80.20
2022-09-24T06:37:18.965Z,79.90
2022-09-24T06:39:46.866Z,79.50
2022-09-24T06:42:15.770Z,79.30
2022-09-24T06:44:43.581Z,78.10
2022-09-24T06:47:12.589Z,76.70
2022-09-24T06:49:40.769Z,75.80
2022-09-24T06:52:08.790Z,75.90
2022-09-24T06:54:38.725Z,73.20
2022-09-24T06:57:07.463Z,73.70
2022-09-24T06:59:35.278Z,71.50
2022-09-24T07:02:03.337Z,71.40
2022-09-24T07:04:31.285Z,71.70
2022-09-24T07:07:16.489Z,71.30
2022-09-24T07:09:46.081Z,72.00
2022-09-24T07:12:14.128Z,71.40
2022-09-24T07:14:42.058Z,70.20
2022-09-24T07:17:09.996Z,69.50
2022-09-24T07:19:38.287Z,67.30
2022-09-24T07:22:06.390Z,66.90
2022-09-24T07:24:34.348Z,62.90
2022-09-24T07:27:04.734Z,63.60
2022-09-24T07:29:32.681Z,62.40
2022-09-24T07:32:00.584Z,61.60
2022-09-24T07:34:28.485Z,60.20
2022-09-24T07:36:57.131Z,58.90
2022-09-24T07:39:25.327Z,57.90
2022-09-24T07:41:54.664Z,58.00
2022-09-24T07:44:24.060Z,57.80
2022-09-24T07:46:52.438Z,54.90
2022-09-24T07:49:20.360Z,54.10
2022-09-24T07:51:49.559Z,55.40
2022-09-24T07:54:17.702Z,55.40
2022-09-24T07:56:45.622Z,56.30
2022-09-24T07:59:13.790Z,57.10
2022-09-24T08:01:43.036Z,58.00
2022-09-24T08:04:11.226Z,57.60
2022-09-24T08:06:43.623Z,58.00
2022-09-24T08:09:15.756Z,59.40
2022-09-24T08:11:44.010Z,60.80
2022-09-24T08:14:11.920Z,61.60
2022-09-24T08:16:41.178Z,62.90
2022-09-24T08:19:14.017Z,63.30
2022-09-24T08:21:41.885Z,64.10
2022-09-24T08:24:10.125Z,64.50
2022-09-24T08:26:38.050Z,64.70
2022-09-24T08:29:05.905Z,64.00
2022-09-24T08:31:35.125Z,64.50
2022-09-24T08:34:02.996Z,65.20
2022-09-24T08:36:32.180Z,65.80
2022-09-24T08:39:00.062Z,65.70
2022-09-24T08:41:34.404Z,64.90
2022-09-24T08:44:04.980Z,63.60
2022-09-24T08:46:53.205Z,63.70
2022-09-24T08:49:23.595Z,63.80
2022-09-24T08:51:58.237Z,63.70
2022-09-24T08:54:26.674Z,63.40
2022-09-24T08:56:56.603Z,63.00
2022-09-24T08:59:28.749Z,61.30
2022-09-24T09:01:59.170Z,60.80
2022-09-24T09:04:28.472Z,60.90
2022-09-24T09:07:09.841Z,61.10
2022-09-24T09:09:45.791Z,61.30
2022-09-24T09:12:15.339Z,62.20
2022-09-24T09:14:46.339Z,63.50
2022-09-24T09:17:19.475Z,64.60
2022-09-24T09:19:53.618Z,65.40
2022-09-24T09:22:26.156Z,66.40
2022-09-24T09:25:03.474Z,66.00
2022-09-24T09:27:33.034Z,66.20
2022-09-24T09:30:04.294Z,65.90
2022-09-24T09:32:38.465Z,65.80
2022-09-24T09:35:12.302Z,65.60
2022-09-24T09:37:45.423Z,65.40
2022-09-24T09:40:29.151Z,64.40
2022-09-24T09:43:03.885Z,63.70
2022-09-24T09:45:34.382Z,60.80
2022-09-24T09:48:03.115Z,59.20
2022-09-24T09:50:35.903Z,56.60
2022-09-24T09:53:05.835Z,55.20
2022-09-24T09:55:35.395Z,52.80
2022-09-24T09:58:17.570Z,49.60
2022-09-24T10:00:46.956Z,46.20
2022-09-24T10:03:25.421Z,42.50
2022-09-24T10:05:55.463Z,41.20
2022-09-24T10:08:25.216Z,41.20
2022-09-24T10:10:56.401Z,39.00
2022-09-24T10:13:24.325Z,39.90
2022-09-24T10:15:53.375Z,40.90
2022-09-24T10:18:25.794Z,43.10
2022-09-24T10:20:54.035Z,43.90
2022-09-24T10:23:24.379Z,44.30
2022-09-24T10:25:59.755Z,44.90
2022-09-24T10:28:45.929Z,45.70
2022-09-24T10:31:16.170Z,47.10
2022-09-24T10:33:45.381Z,46.70
2022-09-24T10:36:16.065Z,47.60
2022-09-24T10:38:44.790Z,47.50
2022-09-24T10:41:27.319Z,48.30
2022-09-24T10:43:56.529Z,48.20
2022-09-24T10:46:45.552Z,47.70
2022-09-24T10:49:18.662Z,48.50
2022-09-24T10:51:49.897Z,48.50
2022-09-24T10:54:26.216Z,48.60
2022-09-24T10:56:58.127Z,49.50
2022-09-24T10:59:31.553Z,49.70
2022-09-24T11:02:06.969Z,47.20
2022-09-24T11:04:44.067Z,46.70
2022-09-24T11:07:27.205Z,45.60
2022-09-24T11:09:59.434Z,44.80
2022-09-24T11:12:32.753Z,44.10
2022-09-24T11:15:08.129Z,43.50
2022-09-24T11:17:38.382Z,42.00
2022-09-24T11:20:17.095Z,38.50
2022-09-24T11:22:52.006Z,37.50
2022-09-24T11:25:27.461Z,38.10
2022-09-24T11:28:04.220Z,37.30
2022-09-24T11:30:35.636Z,36.50
2022-09-24T11:33:22.112Z,36.90
2022-09-24T11:36:08.944Z,37.70
2022-09-24T11:38:42.983Z,38.60
2022-09-24T11:41:17.187Z,39.20
2022-09-24T11:43:54.960Z,39.80
2022-09-24T11:46:32.127Z,40.20
2022-09-24T11:49:15.327Z,39.60
2022-09-24T11:51:51.746Z,40.10
2022-09-24T11:54:23.679Z,39.70
2022-09-24T11:56:57.589Z,40.40
2022-09-24T11:59:33.499Z,41.50
2022-09-24T12:02:05.587Z,42.20
2022-09-24T12:04:45.324Z,43.20
2022-09-24T12:07:14.909Z,43.80
2022-09-24T12:09:45.655Z,43.60
2022-09-24T12:12:16.722Z,43.10
2022-09-24T12:14:48.145Z,43.30
2022-09-24T12:17:19.274Z,44.00
2022-09-24T12:19:51.308Z,44.50
2022-09-24T12:22:21.665Z,44.60
2022-09-24T12:24:51.750Z,44.00
2022-09-24T12:27:23.821Z,44.00
2022-09-24T12:30:14.123Z,43.80
2022-09-24T12:32:57.155Z,43.90
2022-09-24T12:35:31.787Z,44.40
2022-09-24T12:38:02.161Z,43.20
2022-09-24T12:40:41.697Z,42.90
2022-09-24T12:43:15.356Z,42.10
2022-09-24T12:45:44.723Z,40.90
2022-09-24T12:48:15.671Z,40.20
2022-09-24T12:50:45.966Z,39.90
2022-09-24T12:53:25.258Z,40.10
2022-09-24T12:55:53.704Z,40.90
2022-09-24T12:58:29.589Z,41.20
2022-09-24T13:01:08.669Z,42.10
2022-09-24T13:03:44.654Z,42.30
2022-09-24T13:06:23.102Z,42.70
2022-09-24T13:08:51.651Z,42.70
2022-09-24T13:11:27.166Z,42.80
2022-09-24T13:13:59.636Z,42.90
2022-09-24T13:16:29.458Z,43.00
2022-09-24T13:18:59.481Z,43.60
2022-09-24T13:21:28.353Z,43.80
2022-09-24T13:23:56.842Z,43.60
2022-09-24T13:26:29.863Z,44.00
2022-09-24T13:29:00.859Z,44.90
2022-09-24T13:31:34.046Z,45.10
2022-09-24T13:34:03.962Z,45.40
2022-09-24T13:36:36.670Z,45.20
2022-09-24T13:39:07.590Z,45.20
2022-09-24T13:41:41.934Z,44.90
2022-09-24T13:44:14.777Z,45.20
2022-09-24T13:46:46.001Z,45.30
2022-09-24T13:49:17.715Z,45.00
2022-09-24T13:51:47.018Z,45.40
2022-09-24T13:54:17.221Z,45.70
2022-09-24T13:56:56.207Z,45.80
2022-09-24T13:59:24.215Z,46.10
2022-09-24T14:01:53.652Z,47.50
2022-09-24T14:04:22.845Z,48.50
2022-09-24T14:06:53.592Z,50.00
2022-09-24T14:09:29.157Z,51.80
2022-09-24T14:11:58.484Z,52.50
2022-09-24T14:14:28.342Z,54.30
2022-09-24T14:17:08.443Z,54.60
2022-09-24T14:19:36.792Z,54.80
2022-09-24T14:22:06.645Z,55.60
2022-09-24T14:24:35.957Z,56.40
2022-09-24T14:27:06.879Z,56.00
2022-09-24T14:29:41.621Z,57.40
2022-09-24T14:32:21.200Z,58.10
2022-09-24T14:34:52.255Z,58.80
2022-09-24T14:37:21.479Z,60.00
2022-09-24T14:39:51.935Z,61.30
2022-09-24T14:42:23.068Z,62.30
2022-09-24T14:44:51.611Z,62.80
2022-09-24T14:47:26.847Z,63.80
2022-09-24T14:49:55.164Z,64.20
2022-09-24T14:52:31.058Z,64.00
2022-09-24T14:55:02.984Z,64.20
2022-09-24T14:57:37.107Z,63.60
2022-09-24T15:00:19.565Z,63.10
2022-09-24T15:02:50.703Z,63.00
2022-09-24T15:05:23.872Z,62.30
2022-09-24T15:07:52.331Z,62.00
2022-09-24T15:10:22.870Z,62.30
2022-09-24T15:12:52.294Z,62.80
2022-09-24T15:15:28.681Z,62.60
2022-09-24T15:17:58.376Z,62.90
2022-09-24T15:20:26.273Z,62.90
2022-09-24T15:22:54.633Z,62.50
2022-09-24T15:25:22.655Z,62.80
2022-09-24T15:27:53.428Z,62.80
2022-09-24T15:30:22.702Z,63.40
2022-09-24T15:32:51.350Z,64.00
2022-09-24T15:35:20.939Z,64.20
2022-09-24T15:37:49.926Z,64.10
2022-09-24T15:40:20.860Z,64.30
2022-09-24T15:42:49.251Z,64.50
2022-09-24T15:45:18.265Z,64.40
2022-09-24T15:47:46.521Z,64.60
2022-09-24T15:50:14.698Z,64.50
2022-09-24T15:52:48.321Z,64.70
2022-09-24T15:55:17.684Z,65.10
2022-09-24T15:57:46.375Z,65.40
2022-09-24T16:00:15.743Z,65.80
2022-09-24T16:02:45.095Z,65.90
2022-09-24T16:05:13.823Z,66.00
2022-09-24T16:07:42.334Z,66.10
2022-09-24T16:10:13.494Z,66.40
2022-09-24T16:12:41.868Z,66.40
2022-09-24T16:15:12.805Z,66.70
2022-09-24T16:17:41.224Z,66.80
2022-09-24T16:20:09.898Z,66.90
2022-09-24T16:22:38.316Z,67.20
2022-09-24T16:25:07.225Z,67.30
2022-09-24T16:27:37.693Z,67.00
2022-09-24T16:30:06.560Z,67.10
2022-09-24T16:32:35.246Z,67.40
2022-09-24T16:35:03.916Z,67.30
2022-09-24T16:37:32.481Z,67.40
2022-09-24T16:40:00.956Z,67.60
2022-09-24T16:42:29.223Z,68.00
2022-09-24T16:44:58.738Z,68.20
2022-09-24T16:47:27.437Z,68.20
2022-09-24T16:49:55.772Z,68.40
2022-09-24T16:52:23.943Z,68.40
2022-09-24T16:54:51.895Z,68.80
2022-09-24T16:57:19.937Z,68.90
2022-09-24T16:59:50.287Z,69.00
2022-09-24T17:02:20.326Z,69.10
2022-09-24T17:04:48.286Z,69.50
2022-09-24T17:07:16.276Z,69.50
2022-09-24T17:10:02.104Z,69.80
2022-09-24T17:12:30.505Z,70.00
2022-09-24T17:15:02.062Z,70.10
2022-09-24T17:17:31.733Z,70.50
2022-09-24T17:20:00.130Z,70.80
2022-09-24T17:22:28.442Z,70.80
2022-09-24T17:24:57.492Z,71.10
2022-09-24T17:27:25.850Z,71.30
2022-09-24T17:29:54.026Z,71.40
2022-09-24T17:32:22.284Z,71.60
2022-09-24T17:34:51.946Z,71.70
2022-09-24T17:37:20.150Z,71.60
2022-09-24T17:39:48.428Z,71.70
2022-09-24T17:42:16.769Z,72.00
2022-09-24T17:44:46.131Z,72.10
2022-09-24T17:47:14.471Z,72.40
2022-09-24T17:49:42.587Z,72.50
2022-09-24T17:52:12.027Z,72.70
2022-09-24T17:54:40.371Z,72.70
2022-09-24T17:57:08.585Z,72.70
2022-09-24T17:59:37.161Z,72.70
2022-09-24T18:02:06.895Z,72.70
2022-09-24T18:04:38.452Z,72.60
2022-09-24T18:07:06.723Z,72.40
2022-09-24T18:09:36.207Z,72.40
2022-09-24T18:12:04.663Z,72.40
2022-09-24T18:14:35.242Z,72.40
2022-09-24T18:17:03.162Z,72.50
2022-09-24T18:19:31.496Z,72.90
2022-09-24T18:21:59.992Z,73.00
2022-09-24T18:24:28.282Z,73.20
2022-09-24T18:26:57.974Z,71.00
2022-09-24T18:29:26.324Z,70.40
2022-09-24T18:31:54.585Z,70.80
2022-09-24T18:34:22.727Z,73.70
2022-09-24T18:36:50.852Z,76.20
2022-09-24T18:39:24.640Z,77.80
2022-09-24T18:41:53.152Z,79.00
2022-09-24T18:44:22.418Z,79.90
2022-09-24T18:46:50.511Z,81.00
2022-09-24T18:49:19.393Z,81.40
2022-09-24T18:51:47.659Z,81.80
2022-09-24T18:54:15.891Z,82.10
2022-09-24T18:56:43.892Z,82.20
2022-09-24T18:59:13.961Z,82.30
2022-09-24T19:01:43.844Z,82.50
2022-09-24T19:04:13.255Z,82.60
2022-09-24T19:06:42.161Z,82.80
2022-09-24T19:09:11.027Z,83.00
2022-09-24T19:11:39.281Z,83.10
2022-09-24T19:14:07.427Z,82.70
2022-09-24T19:16:35.606Z,82.80
2022-09-24T19:19:07.592Z,82.90
2022-09-24T19:21:35.762Z,82.90
2022-09-24T19:24:06.292Z,83.00
2022-09-24T19:26:35.125Z,83.10
2022-09-24T19:29:04.267Z,82.80
2022-09-24T19:31:37.160Z,82.50
2022-09-24T19:34:07.300Z,82.40
2022-09-24T19:36:42.935Z,82.30
2022-09-24T19:39:12.511Z,82.30
2022-09-24T19:41:40.597Z,82.30
2022-09-24T19:44:11.852Z,82.30
2022-09-24T19:46:41.220Z,82.20
2022-09-24T19:49:10.968Z,82.30
2022-09-24T19:51:39.059Z,82.40
2022-09-24T19:54:08.306Z,82.50
2022-09-24T19:56:36.948Z,82.70
2022-09-24T19:59:05.660Z,82.80
2022-09-24T20:01:34.413Z,82.90
2022-09-24T20:04:04.460Z,83.00
2022-09-24T20:06:34.649Z,83.00
2022-09-24T20:09:02.660Z,83.20
2022-09-24T20:11:32.744Z,83.20
2022-09-24T20:14:01.785Z,83.20
2022-09-24T20:16:33.224Z,83.20
2022-09-24T20:19:02.153Z,83.20
2022-09-24T20:21:35.579Z,83.10
2022-09-24T20:24:05.449Z,83.10
2022-09-24T20:26:52.430Z,82.90
2022-09-24T20:29:22.557Z,82.90
2022-09-24T20:31:52.554Z,82.90
2022-09-24T20:34:22.371Z,82.80
2022-09-24T20:36:50.754Z,82.70
2022-09-24T20:39:20.769Z,82.60
2022-09-24T20:41:49.310Z,82.70
2022-09-24T20:44:17.659Z,82.60
2022-09-24T20:46:48.304Z,82.50
2022-09-24T20:49:19.591Z,82.50
2022-09-24T20:51:54.130Z,82.50
2022-09-24T20:54:26.506Z,82.70
2022-09-24T20:56:54.985Z,82.60
2022-09-24T20:59:23.739Z,82.70
2022-09-24T21:01:52.335Z,82.90
2022-09-24T21:04:20.623Z,82.90
2022-09-24T21:06:48.747Z,82.90
2022-09-24T21:09:18.205Z,82.90
2022-09-24T21:11:50.614Z,83.00
2022-09-24T21:14:19.473Z,83.00
2022-09-24T21:16:47.544Z,83.00
2022-09-24T21:19:17.331Z,83.10
2022-09-24T21:21:45.690Z,83.20
2022-09-24T21:24:14.509Z,83.20
2022-09-24T21:26:45.322Z,82.80
2022-09-24T21:29:17.030Z,82.90
2022-09-24T21:31:46.118Z,83.10
2022-09-24T21:34:15.721Z,83.20
2022-09-24T21:36:45.414Z,83.20
2022-09-24T21:39:14.462Z,83.20
2022-09-24T21:41:42.982Z,83.20
2022-09-24T21:44:13.104Z,83.30
2022-09-24T21:46:52.583Z,83.30
2022-09-24T21:49:22.746Z,83.30
2022-09-24T21:51:50.598Z,83.20
2022-09-24T21:54:19.363Z,83.20
2022-09-24T21:56:47.680Z,83.20
2022-09-24T21:59:33.426Z,83.10
2022-09-24T22:02:03.410Z,83.30
2022-09-24T22:04:33.200Z,83.30
2022-09-24T22:07:01.685Z,83.30
2022-09-24T22:09:30.236Z,83.20
2022-09-24T22:12:00.031Z,83.20
2022-09-24T22:14:28.278Z,83.10
2022-09-24T22:16:56.716Z,83.10
2022-09-24T22:19:27.257Z,83.00
2022-09-24T22:21:55.242Z,83.00
2022-09-24T22:24:23.179Z,83.10
2022-09-24T22:26:51.150Z,83.00
2022-09-24T22:29:19.125Z,83.00
2022-09-24T22:31:47.001Z,83.00
2022-09-24T22:34:32.870Z,82.90
2022-09-24T22:37:04.495Z,82.80
2022-09-24T22:39:32.388Z,82.80
2022-09-24T22:42:00.204Z,82.80
2022-09-24T22:44:28.009Z,82.60
2022-09-24T22:46:55.870Z,82.60
2022-09-24T22:49:24.095Z,82.60
2022-09-24T22:51:52.054Z,82.70
2022-09-24T22:54:21.318Z,82.70
2022-09-24T22:56:49.134Z,82.70
2022-09-24T22:59:18.249Z,82.70
2022-09-24T23:01:46.902Z,82.70
2022-09-24T23:04:15.006Z,82.70
2022-09-24T23:06:43.878Z,82.70
2022-09-24T23:09:14.087Z,82.70
2022-09-24T23:11:43.751Z,82.70
2022-09-24T23:14:16.207Z,82.80
2022-09-24T23:16:47.585Z,82.70
2022-09-24T23:19:17.741Z,82.60
2022-09-24T23:21:46.264Z,82.70
2022-09-24T23:24:15.081Z,82.70
2022-09-24T23:26:44.359Z,82.70
2022-09-24T23:29:13.279Z,82.70
2022-09-24T23:31:41.242Z,82.70
2022-09-24T23:34:09.504Z,82.80
2022-09-24T23:36:37.765Z,82.80
2022-09-24T23:39:05.818Z,82.80
2022-09-24T23:41:33.682Z,82.80
2022-09-24T23:44:03.331Z,82.80
2022-09-24T23:46:33.673Z,82.70
2022-09-24T23:49:02.007Z,82.70
2022-09-24T23:51:29.835Z,82.70
2022-09-24T23:53:58.165Z,82.60
2022-09-24T23:56:26.183Z,82.60
2022-09-24T23:58:54.971Z,82.60
